Time;durP1;ratioP1;P1;durP2;ratioP2;P2;SDS_P1;SDS_P2;PMS_P1;PMS_P2;Temp;Humidity;BMP_temperature;BMP_pressure;BME280_temperature;BME280_humidity;BME280_pressure;Samples;Min_cycle;Max_cycle;Signal;HPM_P1;HPM_P2
2022/05/02 00:00:32;;;;;;;;;;;;;;;;;;4710233;30;21033;-83
2022/05/02 00:02:58;;;;;;;;;;;;;;;;;;4718712;30;19929;-83
2022/05/02 00:05:24;;;;;;;;;;;;;;;;;;4709723;30;19930;-83
2022/05/02 00:07:50;;;;;;;;;;;;;;;;;;4725638;30;19960;-83
2022/05/02 00:10:16;;;;;;;;;;;;;;;;;;4718094;29;19934;-83
2022/05/02 00:12:42;;;;;;;;;;;;;;;;;;4724059;30;19951;-83
2022/05/02 00:15:08;;;;;;;;;;;;;;;;;;4716008;29;19930;-83
2022/05/02 00:20:19;;;;;;;;;;;;;;;;;;4719947;30;19937;-83
2022/05/02 00:22:45;;;;;;;;;;;;;;;;;;4712040;30;20044;-83
2022/05/02 00:25:11;;;;;;;;;;;;;;;;;;4705357;29;19990;-83
2022/05/02 00:27:37;;;;;;;;;;;;;;;;;;4722963;30;20271;-82
2022/05/02 00:30:03;;;;;;;;;;;;;;;;;;4718677;29;19992;-83
2022/05/02 00:32:29;;;;;;;;;;;;;;;;;;4721840;30;19949;-83
2022/05/02 00:34:55;;;;;;;;;;;;;;;;;;4721411;30;19964;-83
2022/05/02 00:37:21;;;;;;;;;;;;;;;;;;4718309;30;19941;-82
2022/05/02 00:39:47;;;;;;;;;;;;;;;;;;4722002;30;20061;-83
2022/05/02 00:42:13;;;;;;;;;;;;;;;;;;4704273;30;19958;-83
2022/05/02 00:44:39;;;;;;;;;;;;;;;;;;4707502;30;19973;-83
2022/05/02 00:47:04;;;;;;;;;;;;;;;;;;4718417;30;20091;-83
2022/05/02 00:49:30;;;;;;;;;;;;;;;;;;4725517;30;19973;-83
2022/05/02 00:51:56;;;;;;;;;;;;;;;;;;4708886;30;19934;-83
2022/05/02 00:54:22;;;;;;;;;;;;;;;;;;4720205;30;20017;-83
2022/05/02 00:56:48;;;;;;;;;;;;;;;;;;4727499;30;19934;-83
2022/05/02 00:59:14;;;;;;;;;;;;;;;;;;4719343;30;19980;-83
2022/05/02 01:01:40;;;;;;;;;;;;;;;;;;4723783;30;19944;-83
2022/05/02 01:04:06;;;;;;;;;;;;;;;;;;4709159;30;19938;-83
2022/05/02 01:09:17;;;;;;;;;;;;;;;;;;4718534;30;20067;-83
2022/05/02 01:11:43;;;;;;;;;;;;;;;;;;4738837;30;20020;-83
2022/05/02 01:14:09;;;;;;;;;;;;;;;;;;4703153;30;19940;-83
2022/05/02 01:16:37;;;;;;;;;;;;;;;;;;4722424;30;19968;-82
2022/05/02 01:19:03;;;;;;;;;;;;;;;;;;4701766;30;19934;-83
2022/05/02 01:21:29;;;;;;;;;;;;;;;;;;4724357;30;20267;-83
2022/05/02 01:23:55;;;;;;;;;;;;;;;;;;4725830;30;19926;-83
2022/05/02 01:26:21;;;;;;;;;;;;;;;;;;4722932;30;19929;-83
2022/05/02 01:28:49;;;;;;;;;;;;;;;;;;4723000;30;19973;-83
2022/05/02 01:31:16;;;;;;;;;;;;;;;;;;4718315;30;20020;-83
2022/05/02 01:33:42;;;;;;;;;;;;;;;;;;4724237;30;19930;-83
2022/05/02 01:36:08;;;;;;;;;;;;;;;;;;4707562;30;20507;-83
2022/05/02 01:38:35;;;;;;;;;;;;;;;;;;4723194;30;19976;-83
2022/05/02 01:41:01;;;;;;;;;;;;;;;;;;4719814;30;20389;-82
2022/05/02 01:43:27;;;;;;;;;;;;;;;;;;4711963;30;19938;-83
2022/05/02 01:45:54;;;;;;;;;;;;;;;;;;4725698;30;20382;-83
2022/05/02 01:48:20;;;;;;;;;;;;;;;;;;4735029;30;20119;-83
2022/05/02 01:50:46;;;;;;;;;;;;;;;;;;4735342;29;19949;-83
2022/05/02 01:53:11;;;;;;;;;;;;;;;;;;4735063;30;21651;-82
2022/05/02 01:55:37;;;;;;;;;;;;;;;;;;4736305;29;19929;-83
2022/05/02 01:58:03;;;;;;;;;;;;;;;;;;4720187;30;20023;-82
2022/05/02 02:00:29;;;;;;;;;;;;;;;;;;4705484;30;19937;-83
2022/05/02 02:02:55;;;;;;;;;;;;;;;;;;4739248;30;20010;-83
2022/05/02 02:08:06;;;;;;;;;;;;;;;;;;4718793;30;20388;-82
2022/05/02 02:10:32;;;;;;;;;;;;;;;;;;4710045;30;19934;-83
2022/05/02 02:12:58;;;;;;;;;;;;;;;;;;4722492;30;20591;-83
2022/05/02 02:15:24;;;;;;;;;;;;;;;;;;4709486;30;20279;-83
2022/05/02 02:17:50;;;;;;;;;;;;;;;;;;4724216;30;19961;-83
2022/05/02 02:20:16;;;;;;;;;;;;;;;;;;4704498;30;20362;-82
2022/05/02 02:22:42;;;;;;;;;;;;;;;;;;4725785;30;20352;-83
2022/05/02 02:25:08;;;;;;;;;;;;;;;;;;4702929;30;19934;-82
2022/05/02 02:27:34;;;;;;;;;;;;;;;;;;4726262;30;20040;-82
2022/05/02 02:30:00;;;;;;;;;;;;;;;;;;4720956;29;20988;-83
2022/05/02 02:32:26;;;;;;;;;;;;;;;;;;4727360;30;20386;-82
2022/05/02 02:34:51;;;;;;;;;;;;;;;;;;4711289;30;20701;-82
2022/05/02 02:37:17;;;;;;;;;;;;;;;;;;4702818;30;19957;-82
2022/05/02 02:39:43;;;;;;;;;;;;;;;;;;4709327;30;19926;-82
2022/05/02 02:42:09;;;;;;;;;;;;;;;;;;4707735;30;19988;-82
2022/05/02 02:44:35;;;;;;;;;;;;;;;;;;4720486;30;20447;-82
2022/05/02 02:47:03;;;;;;;;;;;;;;;;;;4717334;30;19934;-82
2022/05/02 02:49:29;;;;;;;;;;;;;;;;;;4723667;30;19934;-83
2022/05/02 02:51:54;;;;;;;;;;;;;;;;;;4723139;30;19970;-82
2022/05/02 02:54:20;;;;;;;;;;;;;;;;;;4716949;30;20063;-82
2022/05/02 02:56:46;;;;;;;;;;;;;;;;;;4725699;30;20010;-83
2022/05/02 02:59:12;;;;;;;;;;;;;;;;;;4721754;30;19938;-83
2022/05/02 03:01:38;;;;;;;;;;;;;;;;;;4709481;30;19934;-83
2022/05/02 03:06:49;;;;;;;;;;;;;;;;;;4727539;30;20543;-82
2022/05/02 03:09:15;;;;;;;;;;;;;;;;;;4732153;30;19963;-82
2022/05/02 03:11:41;;;;;;;;;;;;;;;;;;4744797;30;19937;-82
2022/05/02 03:14:07;;;;;;;;;;;;;;;;;;4708693;30;20387;-82
2022/05/02 03:16:33;;;;;;;;;;;;;;;;;;4729889;30;19941;-82
2022/05/02 03:18:59;;;;;;;;;;;;;;;;;;4708442;30;19956;-83
2022/05/02 03:21:28;;;;;;;;;;;;;;;;;;4709367;30;20268;-82
2022/05/02 03:23:54;;;;;;;;;;;;;;;;;;4714981;30;19926;-82
2022/05/02 03:26:20;;;;;;;;;;;;;;;;;;4708351;29;19969;-82
2022/05/02 03:28:46;;;;;;;;;;;;;;;;;;4713076;30;20088;-82
2022/05/02 03:31:12;;;;;;;;;;;;;;;;;;4738286;30;19941;-82
2022/05/02 03:33:38;;;;;;;;;;;;;;;;;;4724712;30;19933;-82
2022/05/02 03:36:07;;;;;;;;;;;;;;;;;;4722153;29;19933;-83
2022/05/02 03:38:36;;;;;;;;;;;;;;;;;;4724070;30;20413;-83
2022/05/02 03:41:04;;;;;;;;;;;;;;;;;;4737273;30;19999;-82
2022/05/02 03:43:35;;;;;;;;;;;;;;;;;;4726923;30;19936;-82
2022/05/02 03:46:01;;;;;;;;;;;;;;;;;;4728301;30;19940;-82
2022/05/02 03:48:29;;;;;;;;;;;;;;;;;;4741188;30;19930;-82
2022/05/02 03:50:54;;;;;;;;;;;;;;;;;;4741205;30;19937;-82
2022/05/02 03:53:20;;;;;;;;;;;;;;;;;;4721341;30;19934;-82
2022/05/02 03:55:46;;;;;;;;;;;;;;;;;;4723046;30;19929;-82
2022/05/02 03:58:12;;;;;;;;;;;;;;;;;;4742774;29;20024;-83
2022/05/02 04:00:41;;;;;;;;;;;;;;;;;;4709551;30;20418;-82
2022/05/02 04:03:09;;;;;;;;;;;;;;;;;;4719428;30;19930;-82
2022/05/02 04:05:35;;;;;;;;;;;;;;;;;;4741423;30;19934;-82
2022/05/02 04:08:09;;;;;;;;;;;;;;;;;;4736319;29;20349;-82
2022/05/02 04:10:35;;;;;;;;;;;;;;;;;;4710019;30;19945;-82
2022/05/02 04:13:01;;;;;;;;;;;;;;;;;;4718648;30;19929;-82
2022/05/02 04:15:34;;;;;;;;;;;;;;;;;;4742154;30;19940;-82
2022/05/02 04:18:01;;;;;;;;;;;;;;;;;;4720034;30;19933;-82
2022/05/02 04:20:27;;;;;;;;;;;;;;;;;;4724401;30;19926;-82
2022/05/02 04:22:56;;;;;;;;;;;;;;;;;;4713591;30;19941;-82
2022/05/02 04:25:24;;;;;;;;;;;;;;;;;;4719794;30;20020;-82
2022/05/02 04:27:50;;;;;;;;;;;;;;;;;;4727041;30;19965;-82
2022/05/02 04:30:22;;;;;;;;;;;;;;;;;;4722811;30;21519;-82
2022/05/02 04:32:48;;;;;;;;;;;;;;;;;;4725910;30;19978;-83
2022/05/02 04:35:17;;;;;;;;;;;;;;;;;;4707789;30;19930;-82
2022/05/02 04:37:43;;;;;;;;;;;;;;;;;;4724085;30;20030;-82
2022/05/02 04:40:09;;;;;;;;;;;;;;;;;;4722500;30;19930;-82
2022/05/02 04:42:35;;;;;;;;;;;;;;;;;;4715664;30;19926;-82
2022/05/02 04:45:01;;;;;;;;;;;;;;;;;;4724379;29;20258;-82
2022/05/02 04:47:27;;;;;;;;;;;;;;;;;;4731731;30;20090;-82
2022/05/02 04:49:53;;;;;;;;;;;;;;;;;;4714537;30;20348;-82
2022/05/02 04:52:19;;;;;;;;;;;;;;;;;;4722778;30;21394;-82
2022/05/02 04:54:45;;;;;;;;;;;;;;;;;;4715022;30;20012;-83
2022/05/02 04:57:11;;;;;;;;;;;;;;;;;;4725267;30;19936;-82
2022/05/02 04:59:37;;;;;;;;;;;;;;;;;;4742817;30;22930;-83
2022/05/02 05:02:04;;;;;;;;;;;;;;;;;;4721226;30;20694;-82
2022/05/02 05:04:30;;;;;;;;;;;;;;;;;;4712925;30;20026;-83
2022/05/02 05:06:56;;;;;;;;;;;;;;;;;;4715271;30;20013;-82
2022/05/02 05:09:41;;;;;;;;;;;;;;;;;;4745275;29;20425;-83
2022/05/02 05:12:56;;;;;;;;;;;;;;;;;;;;;
2022/05/02 05:18:32;;;;;;;;;;;;;;;;;;4692131;30;19935;-83
2022/05/02 05:21:18;;;;;;;;;;;;;;;;;;4671709;30;19933;-83
2022/05/02 05:23:52;;;;;;;;;;;;;;;;;;4656331;30;19928;-82
2022/05/02 05:26:35;;;;;;;;;;;;;;;;;;4648457;30;20037;-83
2022/05/02 05:29:16;;;;;;;;;;;;;;;;;;4638184;30;19995;-83
2022/05/02 05:31:42;;;;;;;;;;;;;;;;;;4645300;30;19938;-82
2022/05/02 05:37:43;;;;;;;;;;;;;;;;;;;;;
2022/05/02 05:40:22;;;;;;;;;;;;;;;;;;4643531;30;19936;-82
2022/05/02 05:43:00;;;;;;;;;;;;;;;;;;4656901;30;21442;-83
2022/05/02 05:45:47;;;;;;;;;;;;;;;;;;4644325;30;20385;-83
2022/05/02 05:54:34;;;;;;;;;;;;;;;;;;4688741;30;19950;-83
2022/05/02 06:00:05;;;;;;;;;;;;;;;;;;4629716;30;19940;-83
2022/05/02 06:08:51;;;;;;;;;;;;;;;;;;;;;
2022/05/02 06:22:57;;;;;;;;;;;;;;;;;;4703830;30;19940;-83
2022/05/02 06:28:38;;;;;;;;;;;;;;;;;;4634575;30;19946;-83
2022/05/02 06:31:26;;;;;;;;;;;;;;;;;;4639646;30;19931;-83
2022/05/02 06:33:58;;;;;;;;;;;;;;;;;;4627377;30;19928;-83
2022/05/02 06:36:52;;;;;;;;;;;;;;;;;;4654215;30;19928;-83
2022/05/02 06:39:43;;;;;;;;;;;;;;;;;;4643970;30;19951;-82
2022/05/02 06:42:33;;;;;;;;;;;;;;;;;;4605956;30;19936;-83
2022/05/02 06:45:13;;;;;;;;;;;;;;;;;;4587136;30;19936;-83
2022/05/02 06:47:52;;;;;;;;;;;;;;;;;;4609381;30;19939;-83
2022/05/02 06:50:50;;;;;;;;;;;;;;;;;;4594466;30;19983;-83
2022/05/02 06:53:31;;;;;;;;;;;;;;;;;;4613880;30;19932;-83
2022/05/02 06:56:08;;;;;;;;;;;;;;;;;;4611895;30;20002;-83
2022/05/02 06:59:01;;;;;;;;;;;;;;;;;;4637001;30;19940;-83
2022/05/02 07:01:42;;;;;;;;;;;;;;;;;;4648489;30;20009;-84
2022/05/02 07:04:18;;;;;;;;;;;;;;;;;;4619605;30;20352;-84
2022/05/02 07:07:11;;;;;;;;;;;;;;;;;;4607349;30;20369;-83
2022/05/02 07:10:01;;;;;;;;;;;;;;;;;;4611396;30;20023;-84
2022/05/02 07:16:06;;;;;;;;;;;;;;;;;;4586810;31;20012;-83
2022/05/02 07:18:48;;;;;;;;;;;;;;;;;;4573910;31;19968;-84
2022/05/02 07:21:38;;;;;;;;;;;;;;;;;;4591170;31;19996;-84
2022/05/02 07:24:22;;;;;;;;;;;;;;;;;;4585641;31;20382;-84
2022/05/02 07:27:17;;;;;;;;;;;;;;;;;;4595794;30;19940;-84
2022/05/02 07:29:53;;;;;;;;;;;;;;;;;;4600752;30;19982;-84
2022/05/02 07:32:55;;;;;;;;;;;;;;;;;;4608204;30;19928;-83
2022/05/02 07:35:34;;;;;;;;;;;;;;;;;;4661051;30;20116;-84
2022/05/02 07:38:35;;;;;;;;;;;;;;;;;;;;;
2022/05/02 07:46:46;;;;;;;;;;;;;;;;;;4662655;30;19935;-84
2022/05/02 07:49:22;;;;;;;;;;;;;;;;;;4661026;30;19935;-84
2022/05/02 07:52:07;;;;;;;;;;;;;;;;;;4661181;30;20030;-84
2022/05/02 07:54:55;;;;;;;;;;;;;;;;;;4673509;30;20637;-84
2022/05/02 07:57:42;;;;;;;;;;;;;;;;;;4657827;30;19931;-84
2022/05/02 08:10:35;;;;;;;;;;;;;;;;;;4702697;30;19942;-84
2022/05/02 08:15:59;;;;;;;;;;;;;;;;;;4727847;30;20031;-84
2022/05/02 08:18:47;;;;;;;;;;;;;;;;;;4723429;30;19934;-84
2022/05/02 08:21:24;;;;;;;;;;;;;;;;;;4695594;30;19930;-84
2022/05/02 08:32:39;;;;;;;;;;;;;;;;;;4696438;30;20391;-85
2022/05/02 08:35:11;;;;;;;;;;;;;;;;;;4649550;30;20498;-85
2022/05/02 08:37:43;;;;;;;;;;;;;;;;;;4633213;30;20125;-84
2022/05/02 08:40:24;;;;;;;;;;;;;;;;;;4650531;30;19987;-84
2022/05/02 08:43:18;;;;;;;;;;;;;;;;;;;;;
2022/05/02 08:48:39;;;;;;;;;;;;;;;;;;4629246;30;19929;-84
2022/05/02 08:51:16;;;;;;;;;;;;;;;;;;4641483;30;19944;-85
2022/05/02 08:54:00;;;;;;;;;;;;;;;;;;4670329;30;20323;-84
2022/05/02 08:56:40;;;;;;;;;;;;;;;;;;4662000;30;20082;-84
2022/05/02 09:02:20;;;;;;;;;;;;;;;;;;4668630;30;19989;-85
2022/05/02 09:05:17;;;;;;;;;;;;;;;;;;4675356;30;19966;-85
2022/05/02 09:11:02;;;;;;;;;;;;;;;;;;4672161;30;19939;-85
2022/05/02 09:13:43;;;;;;;;;;;;;;;;;;4670334;30;19931;-85
2022/05/02 09:16:15;;;;;;;;;;;;;;;;;;4652592;30;19974;-85
2022/05/02 09:18:59;;;;;;;;;;;;;;;;;;4630991;30;19932;-85
2022/05/02 09:21:40;;;;;;;;;;;;;;;;;;4635481;30;21477;-81
2022/05/02 09:24:06;;;;;;;;;;;;;;;;;;4648662;30;19935;-80
2022/05/02 09:26:32;;;;;;;;;;;;;;;;;;4676060;30;20007;-81
2022/05/02 09:28:58;;;;;;;;;;;;;;;;;;4670826;30;19952;-81
2022/05/02 09:31:24;;;;;;;;;;;;;;;;;;4704191;30;19930;-81
2022/05/02 09:33:50;;;;;;;;;;;;;;;;;;4707244;30;20025;-81
2022/05/02 09:36:16;;;;;;;;;;;;;;;;;;4717890;30;20382;-81
2022/05/02 09:38:42;;;;;;;;;;;;;;;;;;4722855;30;20381;-81
2022/05/02 09:41:08;;;;;;;;;;;;;;;;;;4713680;30;20360;-81
2022/05/02 09:51:31;;;;;;;;;;;;;;;;;;4728001;30;19930;-81
2022/05/02 09:53:57;;;;;;;;;;;;;;;;;;4713362;30;19938;-80
2022/05/02 09:56:38;;;;;;;;;;;;;;;;;;4722063;30;20543;-84
2022/05/02 09:59:04;;;;;;;;;;;;;;;;;;4727293;30;19930;-85
2022/05/02 10:01:30;;;;;;;;;;;;;;;;;;4699746;30;19930;-85
2022/05/02 10:03:56;;;;;;;;;;;;;;;;;;4709308;30;20287;-85
2022/05/02 10:06:22;;;;;;;;;;;;;;;;;;4721833;30;19926;-85
2022/05/02 10:08:48;;;;;;;;;;;;;;;;;;4695997;30;19945;-86
2022/05/02 10:11:14;;;;;;;;;;;;;;;;;;4684449;30;19938;-85
2022/05/02 10:13:40;;;;;;;;;;;;;;;;;;4694529;30;20504;-85
2022/05/02 10:16:06;;;;;;;;;;;;;;;;;;4693481;30;19961;-85
2022/05/02 10:18:32;;;;;;;;;;;;;;;;;;4725331;30;19934;-85
2022/05/02 10:20:59;;;;;;;;;;;;;;;;;;4693683;30;20299;-85
2022/05/02 10:23:25;;;;;;;;;;;;;;;;;;4711466;30;19941;-86
2022/05/02 10:25:51;;;;;;;;;;;;;;;;;;4707767;30;19934;-85
2022/05/02 10:28:17;;;;;;;;;;;;;;;;;;4703897;30;22135;-85
2022/05/02 10:30:43;;;;;;;;;;;;;;;;;;4720483;29;19977;-85
2022/05/02 10:33:09;;;;;;;;;;;;;;;;;;4706866;30;19930;-85
2022/05/02 10:35:36;;;;;;;;;;;;;;;;;;4708024;30;19968;-85
2022/05/02 10:38:02;;;;;;;;;;;;;;;;;;4705550;30;20721;-85
2022/05/02 10:40:29;;;;;;;;;;;;;;;;;;4697000;30;20101;-85
2022/05/02 10:42:55;;;;;;;;;;;;;;;;;;4713921;30;21850;-83
2022/05/02 10:45:21;;;;;;;;;;;;;;;;;;4703028;30;19930;-83
2022/05/02 10:47:47;;;;;;;;;;;;;;;;;;4695118;30;20043;-83
2022/05/02 10:50:13;;;;;;;;;;;;;;;;;;4702779;30;19934;-83
2022/05/02 10:52:39;;;;;;;;;;;;;;;;;;4707105;30;19980;-83
2022/05/02 10:55:05;;;;;;;;;;;;;;;;;;4689272;30;19934;-83
2022/05/02 10:57:31;;;;;;;;;;;;;;;;;;4695913;30;19930;-83
2022/05/02 10:59:57;;;;;;;;;;;;;;;;;;4708134;30;20069;-83
2022/05/02 11:02:23;;;;;;;;;;;;;;;;;;4724248;30;19960;-83
2022/05/02 11:04:49;;;;;;;;;;;;;;;;;;4722145;30;19966;-83
2022/05/02 11:07:15;;;;;;;;;;;;;;;;;;4707412;30;20354;-83
2022/05/02 11:09:41;;;;;;;;;;;;;;;;;;4724310;30;20046;-84
2022/05/02 11:12:07;;;;;;;;;;;;;;;;;;4722804;29;20033;-84
2022/05/02 11:14:33;;;;;;;;;;;;;;;;;;4718869;30;19934;-83
2022/05/02 11:16:59;;;;;;;;;;;;;;;;;;4737732;30;19933;-83
2022/05/02 11:22:10;;;;;;;;;;;;;;;;;;4740355;30;19990;-84
2022/05/02 11:24:37;;;;;;;;;;;;;;;;;;4746161;30;20913;-80
2022/05/02 11:27:02;;;;;;;;;;;;;;;;;;4724718;30;20009;-84
2022/05/02 11:29:28;;;;;;;;;;;;;;;;;;4751681;30;20079;-79
2022/05/02 11:31:54;;;;;;;;;;;;;;;;;;4750052;29;19938;-79
2022/05/02 11:34:20;;;;;;;;;;;;;;;;;;4743898;30;20328;-79
2022/05/02 11:36:46;;;;;;;;;;;;;;;;;;4746433;30;19933;-79
2022/05/02 11:39:12;;;;;;;;;;;;;;;;;;4744877;30;20051;-79
2022/05/02 11:41:38;;;;;;;;;;;;;;;;;;4730335;30;19930;-79
2022/05/02 11:44:04;;;;;;;;;;;;;;;;;;4720847;30;20386;-79
2022/05/02 11:46:31;;;;;;;;;;;;;;;;;;4742514;30;19925;-79
2022/05/02 11:48:57;;;;;;;;;;;;;;;;;;4728705;30;19938;-79
2022/05/02 11:51:23;;;;;;;;;;;;;;;;;;4739442;29;20060;-79
2022/05/02 11:53:49;;;;;;;;;;;;;;;;;;4727581;30;19926;-80
2022/05/02 11:56:15;;;;;;;;;;;;;;;;;;4736816;30;19992;-79
2022/05/02 11:58:41;;;;;;;;;;;;;;;;;;4747475;30;20418;-78
2022/05/02 12:01:08;;;;;;;;;;;;;;;;;;4742223;29;20888;-79
2022/05/02 12:03:34;;;;;;;;;;;;;;;;;;4724567;30;19930;-79
2022/05/02 12:06:04;;;;;;;;;;;;;;;;;;4720624;30;19941;-79
2022/05/02 12:08:30;;;;;;;;;;;;;;;;;;4737503;30;20143;-79
2022/05/02 12:10:56;;;;;;;;;;;;;;;;;;4722108;30;20383;-78
2022/05/02 12:13:22;;;;;;;;;;;;;;;;;;4732071;30;19926;-79
2022/05/02 12:15:48;;;;;;;;;;;;;;;;;;4741582;30;19930;-79
2022/05/02 12:18:14;;;;;;;;;;;;;;;;;;4720744;30;19926;-79
2022/05/02 12:20:41;;;;;;;;;;;;;;;;;;4722364;30;19934;-79
2022/05/02 12:23:07;;;;;;;;;;;;;;;;;;4724707;30;20968;-79
2022/05/02 12:25:33;;;;;;;;;;;;;;;;;;4707738;30;20016;-78
2022/05/02 12:28:03;;;;;;;;;;;;;;;;;;4719909;30;20383;-79
2022/05/02 12:30:29;;;;;;;;;;;;;;;;;;4725506;30;20014;-79
2022/05/02 12:32:55;;;;;;;;;;;;;;;;;;4713601;30;20016;-78
2022/05/02 12:35:21;;;;;;;;;;;;;;;;;;4725876;30;19960;-79
2022/05/02 12:37:48;;;;;;;;;;;;;;;;;;4731222;30;19984;-79
2022/05/02 12:40:14;;;;;;;;;;;;;;;;;;4722777;29;19953;-79
2022/05/02 12:42:40;;;;;;;;;;;;;;;;;;4741923;30;20247;-79
2022/05/02 12:45:11;;;;;;;;;;;;;;;;;;4723885;30;19934;-78
2022/05/02 12:47:37;;;;;;;;;;;;;;;;;;4727118;30;19934;-78
2022/05/02 12:50:03;;;;;;;;;;;;;;;;;;4728326;29;20000;-79
2022/05/02 12:52:29;;;;;;;;;;;;;;;;;;4727859;30;19999;-78
2022/05/02 12:54:55;;;;;;;;;;;;;;;;;;4708193;30;20025;-79
2022/05/02 13:02:50;;;;;;;;;;;;;;;;;;4727415;30;19926;-79
2022/05/02 13:05:16;;;;;;;;;;;;;;;;;;4727847;29;19926;-79
2022/05/02 13:07:43;;;;;;;;;;;;;;;;;;4722742;30;19933;-79
2022/05/02 13:10:09;;;;;;;;;;;;;;;;;;4743906;30;19934;-79
2022/05/02 13:12:35;;;;;;;;;;;;;;;;;;4743966;30;20392;-79
2022/05/02 13:15:01;;;;;;;;;;;;;;;;;;4723790;30;20347;-79
2022/05/02 13:17:27;;;;;;;;;;;;;;;;;;4727122;30;20338;-79
2022/05/02 13:19:53;;;;;;;;;;;;;;;;;;4743296;30;20353;-79
2022/05/02 13:22:19;;;;;;;;;;;;;;;;;;4715152;30;19934;-79
2022/05/02 13:24:45;;;;;;;;;;;;;;;;;;4747037;30;19930;-79
2022/05/02 13:27:11;;;;;;;;;;;;;;;;;;4726081;30;20218;-79
2022/05/02 13:29:37;;;;;;;;;;;;;;;;;;4741626;30;19991;-79
2022/05/02 13:32:03;;;;;;;;;;;;;;;;;;4741469;29;20025;-79
2022/05/02 13:34:31;;;;;;;;;;;;;;;;;;4744150;30;19941;-79
2022/05/02 13:36:58;;;;;;;;;;;;;;;;;;4724048;30;19936;-80
2022/05/02 13:39:24;;;;;;;;;;;;;;;;;;4712809;30;20438;-79
2022/05/02 13:41:50;;;;;;;;;;;;;;;;;;4727542;30;19990;-79
2022/05/02 13:44:16;;;;;;;;;;;;;;;;;;4721925;30;19933;-79
2022/05/02 13:46:42;;;;;;;;;;;;;;;;;;4715161;30;19934;-79
2022/05/02 13:49:10;;;;;;;;;;;;;;;;;;4718046;30;20009;-79
2022/05/02 13:51:37;;;;;;;;;;;;;;;;;;4706649;30;20072;-79
2022/05/02 13:54:03;;;;;;;;;;;;;;;;;;4704605;30;19929;-79
2022/05/02 13:56:29;;;;;;;;;;;;;;;;;;4711633;30;19995;-79
2022/05/02 13:58:56;;;;;;;;;;;;;;;;;;4710926;30;19934;-79
2022/05/02 14:04:02;;;;;;;;;;;;;;;;;;4724111;30;19929;-79
2022/05/02 14:06:36;;;;;;;;;;;;;;;;;;4723783;30;20471;-79
2022/05/02 14:09:03;;;;;;;;;;;;;;;;;;4733085;30;19934;-79
2022/05/02 14:11:29;;;;;;;;;;;;;;;;;;4726623;30;20523;-79
2022/05/02 14:13:55;;;;;;;;;;;;;;;;;;4723941;30;19941;-79
2022/05/02 14:16:21;;;;;;;;;;;;;;;;;;4721557;30;19926;-79
2022/05/02 14:18:47;;;;;;;;;;;;;;;;;;4729975;30;19930;-79
2022/05/02 14:21:12;;;;;;;;;;;;;;;;;;4706336;30;19983;-79
2022/05/02 14:23:38;;;;;;;;;;;;;;;;;;4726866;30;19934;-79
2022/05/02 14:26:05;;;;;;;;;;;;;;;;;;4720032;30;19936;-80
2022/05/02 14:28:31;;;;;;;;;;;;;;;;;;4709295;30;20278;-79
2022/05/02 14:30:56;;;;;;;;;;;;;;;;;;4719945;30;19933;-79
2022/05/02 14:33:22;;;;;;;;;;;;;;;;;;4697479;30;19937;-79
2022/05/02 14:35:48;;;;;;;;;;;;;;;;;;4715052;30;19930;-79
2022/05/02 14:38:14;;;;;;;;;;;;;;;;;;4713051;30;19933;-80
2022/05/02 14:40:40;;;;;;;;;;;;;;;;;;4722425;30;19926;-80
2022/05/02 14:43:07;;;;;;;;;;;;;;;;;;4714474;30;19948;-80
2022/05/02 14:45:33;;;;;;;;;;;;;;;;;;4703613;30;19933;-80
2022/05/02 14:47:59;;;;;;;;;;;;;;;;;;4718608;30;20434;-79
2022/05/02 14:50:26;;;;;;;;;;;;;;;;;;4717974;30;19945;-80
2022/05/02 14:52:52;;;;;;;;;;;;;;;;;;4720877;30;19925;-80
2022/05/02 14:55:18;;;;;;;;;;;;;;;;;;4730276;30;20066;-80
2022/05/02 14:57:46;;;;;;;;;;;;;;;;;;4720895;30;19934;-80
2022/05/02 15:00:13;;;;;;;;;;;;;;;;;;4743935;30;19930;-80
2022/05/02 15:02:39;;;;;;;;;;;;;;;;;;4741558;29;19944;-80
2022/05/02 15:05:07;;;;;;;;;;;;;;;;;;4740758;30;19934;-79
2022/05/02 15:07:48;;;;;;;;;;;;;;;;;;4708787;30;19927;-81
2022/05/02 15:10:14;;;;;;;;;;;;;;;;;;4710575;30;20356;-80
2022/05/02 15:12:41;;;;;;;;;;;;;;;;;;4710448;30;20387;-79
2022/05/02 15:15:07;;;;;;;;;;;;;;;;;;4702136;30;20024;-79
2022/05/02 15:17:35;;;;;;;;;;;;;;;;;;4688386;30;19935;-80
2022/05/02 15:20:01;;;;;;;;;;;;;;;;;;4699851;30;19952;-80
2022/05/02 15:22:29;;;;;;;;;;;;;;;;;;4707330;30;19934;-80
2022/05/02 15:25:08;;;;;;;;;;;;;;;;;;4698425;30;19934;-80
2022/05/02 15:38:32;;;;;;;;;;;;;;;;;;4715972;30;19950;-82
2022/05/02 15:40:58;;;;;;;;;;;;;;;;;;4732197;29;20028;-82
2022/05/02 15:43:24;;;;;;;;;;;;;;;;;;4718502;30;20658;-82
2022/05/02 15:45:50;;;;;;;;;;;;;;;;;;4733230;30;19987;-82
2022/05/02 15:48:16;;;;;;;;;;;;;;;;;;4714456;30;20370;-82
2022/05/02 15:50:42;;;;;;;;;;;;;;;;;;4705394;30;19930;-82
2022/05/02 15:53:08;;;;;;;;;;;;;;;;;;4729127;29;19951;-82
2022/05/02 15:55:35;;;;;;;;;;;;;;;;;;4705606;30;19948;-82
2022/05/02 15:58:03;;;;;;;;;;;;;;;;;;4715405;30;19934;-82
2022/05/02 16:00:29;;;;;;;;;;;;;;;;;;4730967;30;19937;-82
2022/05/02 16:02:56;;;;;;;;;;;;;;;;;;4717220;30;19930;-82
2022/05/02 16:05:37;;;;;;;;;;;;;;;;;;4715814;30;20068;-82
2022/05/02 16:10:48;;;;;;;;;;;;;;;;;;4720876;30;20439;-82
2022/05/02 16:13:18;;;;;;;;;;;;;;;;;;4719122;30;19937;-82
2022/05/02 16:15:44;;;;;;;;;;;;;;;;;;4721697;30;20074;-81
2022/05/02 16:18:11;;;;;;;;;;;;;;;;;;4724621;30;20823;-81
2022/05/02 16:20:38;;;;;;;;;;;;;;;;;;4742832;30;19934;-82
2022/05/02 16:23:04;;;;;;;;;;;;;;;;;;4738266;29;19936;-82
2022/05/02 16:25:34;;;;;;;;;;;;;;;;;;4746468;30;19934;-80
2022/05/02 16:28:00;;;;;;;;;;;;;;;;;;4737949;29;19926;-82
2022/05/02 16:30:26;;;;;;;;;;;;;;;;;;4738633;30;19934;-81
2022/05/02 16:32:53;;;;;;;;;;;;;;;;;;4742006;29;19937;-81
2022/05/02 16:35:20;;;;;;;;;;;;;;;;;;4733990;30;21876;-81
2022/05/02 16:37:46;;;;;;;;;;;;;;;;;;4735878;30;20326;-82
2022/05/02 16:40:12;;;;;;;;;;;;;;;;;;4722810;30;19930;-82
2022/05/02 16:42:38;;;;;;;;;;;;;;;;;;4725161;30;20060;-82
2022/05/02 16:45:05;;;;;;;;;;;;;;;;;;4736958;30;20449;-82
2022/05/02 16:47:31;;;;;;;;;;;;;;;;;;4711560;30;19984;-82
2022/05/02 16:50:00;;;;;;;;;;;;;;;;;;4722081;30;20370;-82
2022/05/02 16:52:26;;;;;;;;;;;;;;;;;;4722461;30;20771;-82
2022/05/02 16:54:52;;;;;;;;;;;;;;;;;;4719717;30;19991;-82
2022/05/02 16:57:18;;;;;;;;;;;;;;;;;;4717381;30;21891;-82
2022/05/02 16:59:44;;;;;;;;;;;;;;;;;;4724093;30;20366;-82
2022/05/02 17:02:10;;;;;;;;;;;;;;;;;;4717541;30;20404;-82
2022/05/02 17:04:37;;;;;;;;;;;;;;;;;;4716765;30;19934;-82
2022/05/02 17:07:03;;;;;;;;;;;;;;;;;;4718905;30;20516;-81
2022/05/02 17:09:29;;;;;;;;;;;;;;;;;;4723399;30;22373;-82
2022/05/02 17:11:55;;;;;;;;;;;;;;;;;;4719644;30;20017;-82
2022/05/02 17:14:21;;;;;;;;;;;;;;;;;;4702195;30;19926;-82
2022/05/02 17:16:46;;;;;;;;;;;;;;;;;;4720105;30;19930;-82
2022/05/02 17:19:15;;;;;;;;;;;;;;;;;;4717207;30;19930;-82
2022/05/02 17:21:41;;;;;;;;;;;;;;;;;;4723783;30;19936;-82
2022/05/02 17:24:07;;;;;;;;;;;;;;;;;;4714118;30;19930;-81
2022/05/02 17:26:33;;;;;;;;;;;;;;;;;;4717595;30;19934;-81
2022/05/02 17:29:00;;;;;;;;;;;;;;;;;;4734690;30;20082;-82
2022/05/02 17:31:26;;;;;;;;;;;;;;;;;;4721587;30;19934;-81
2022/05/02 17:33:52;;;;;;;;;;;;;;;;;;4717063;30;19975;-82
2022/05/02 17:36:18;;;;;;;;;;;;;;;;;;4700923;30;20473;-82
2022/05/02 17:38:44;;;;;;;;;;;;;;;;;;4738254;30;20043;-82
2022/05/02 17:41:10;;;;;;;;;;;;;;;;;;4733032;30;19934;-82
2022/05/02 17:43:36;;;;;;;;;;;;;;;;;;4716452;30;19938;-82
2022/05/02 17:46:03;;;;;;;;;;;;;;;;;;4729420;30;19930;-82
2022/05/02 17:48:29;;;;;;;;;;;;;;;;;;4730507;30;20050;-82
2022/05/02 17:50:55;;;;;;;;;;;;;;;;;;4733117;30;19994;-82
2022/05/02 17:53:21;;;;;;;;;;;;;;;;;;4732289;30;19934;-81
2022/05/02 17:55:47;;;;;;;;;;;;;;;;;;4731063;30;20036;-85
2022/05/02 17:58:13;;;;;;;;;;;;;;;;;;4716435;30;19941;-86
2022/05/02 18:00:39;;;;;;;;;;;;;;;;;;4713858;30;19938;-85
2022/05/02 18:03:05;;;;;;;;;;;;;;;;;;4710870;30;19934;-85
2022/05/02 18:05:32;;;;;;;;;;;;;;;;;;4705408;30;19929;-85
2022/05/02 18:07:58;;;;;;;;;;;;;;;;;;4716318;30;21833;-85
2022/05/02 18:10:24;;;;;;;;;;;;;;;;;;4710224;30;19934;-85
2022/05/02 18:12:50;;;;;;;;;;;;;;;;;;4723747;30;19949;-85
2022/05/02 18:15:18;;;;;;;;;;;;;;;;;;4715895;30;19941;-85
2022/05/02 18:17:45;;;;;;;;;;;;;;;;;;4721797;30;20410;-85
2022/05/02 18:20:16;;;;;;;;;;;;;;;;;;4715505;30;19934;-84
2022/05/02 18:22:42;;;;;;;;;;;;;;;;;;4709705;30;20382;-85
2022/05/02 18:25:11;;;;;;;;;;;;;;;;;;4718392;30;19965;-84
2022/05/02 18:27:37;;;;;;;;;;;;;;;;;;4707724;30;19934;-85
2022/05/02 18:30:03;;;;;;;;;;;;;;;;;;4717717;30;19948;-85
2022/05/02 18:32:29;;;;;;;;;;;;;;;;;;4720613;30;19938;-84
2022/05/02 18:37:40;;;;;;;;;;;;;;;;;;4734731;30;20517;-84
2022/05/02 18:40:06;;;;;;;;;;;;;;;;;;4714688;30;20020;-84
2022/05/02 18:42:32;;;;;;;;;;;;;;;;;;4714957;30;22954;-85
2022/05/02 18:52:57;;;;;;;;;;;;;;;;;;4710323;30;20360;-84
2022/05/02 18:53:14;;;;;;;;;;;;;;;;;;4707349;30;19930;-85
2022/05/02 18:55:40;;;;;;;;;;;;;;;;;;4713339;30;19952;-85
2022/05/02 18:58:06;;;;;;;;;;;;;;;;;;4697774;30;19934;-85
2022/05/02 19:00:32;;;;;;;;;;;;;;;;;;4710784;30;19953;-85
2022/05/02 19:02:58;;;;;;;;;;;;;;;;;;4711837;30;20932;-85
2022/05/02 19:05:24;;;;;;;;;;;;;;;;;;4713538;30;19955;-85
2022/05/02 19:07:51;;;;;;;;;;;;;;;;;;4715713;30;20036;-85